ADDS METAR Data INFO
IDs: Format: Raw Decoded Include TAF

Data at: 0006 UTC 24 Feb 2018

KMUT 232355Z AUTO 31005KT 10SM OVC022 02/M01 A3028 RMK AO2
KMUT 232335Z AUTO 31004KT 10SM BKN023 02/M02 A3028 RMK AO2
KMUT 232315Z AUTO 32005KT 10SM SCT023 03/M02 A3027 RMK AO2
KMUT 232255Z AUTO 30006KT 10SM CLR 03/M01 A3027 RMK AO2
KMUT 232235Z AUTO 30007KT 10SM FEW023 03/M01 A3027 RMK AO2
KMUT 232215Z AUTO 31010KT 10SM BKN023 04/M01 A3028 RMK AO2
KMUT 232055Z AUTO 28009KT 10SM BKN022 04/M01 A3028 RMK AO2
KMUT 232035Z AUTO 29009KT 10SM SCT022 04/M01 A3026 RMK AO2
KMUT 232015Z AUTO 30009KT 10SM SCT021 05/M01 A3026 RMK AO2
KMUT 231955Z AUTO 30012G17KT 10SM BKN022 04/M01 A3026 RMK AO2
KMUT 231935Z AUTO 29012KT 10SM BKN021 04/M01 A3026 RMK AO2
KMUT 231915Z AUTO 30011KT 10SM BKN021 04/M01 A3025 RMK AO2
KMUT 231855Z AUTO 29012KT 10SM OVC020 04/M00 A3026 RMK AO2
KMUT 231835Z AUTO 28012KT 10SM OVC020 04/M00 A3026 RMK AO2
KMUT 231815Z AUTO 26012KT 10SM OVC020 04/M00 A3027 RMK AO2
KMUT 231755Z AUTO 29010KT 10SM OVC019 05/00 A3026 RMK AO2
KMUT 231735Z AUTO 29009KT 10SM OVC020 04/M00 A3025 RMK AO2
KMUT 231715Z AUTO 29011KT 10SM SCT015 BKN021 04/00 A3026 RMK AO2
KMUT 231655Z AUTO 27009KT 10SM BKN014 03/00 A3026 RMK AO2
KMUT 231635Z AUTO 28011KT 10SM OVC014 02/00 A3026 RMK AO2
KMUT 231615Z AUTO 27011KT 10SM OVC014 02/00 A3026 RMK AO2
KMUT 231555Z AUTO 27010KT 10SM OVC016 02/00 A3025 RMK AO2
KMUT 231535Z AUTO 27009KT 10SM OVC018 02/00 A3024 RMK AO2
KMUT 231515Z AUTO 28009G14KT 10SM BKN012 OVC018 02/00 A3024 RMK AO2
KMUT 231455Z AUTO 29012KT 10SM OVC012 02/M00 A3022 RMK AO2
KMUT 231435Z AUTO 28012KT 10SM OVC009 02/00 A3023 RMK AO2
KMUT 231415Z AUTO 28007KT 10SM OVC009 02/00 A3022 RMK AO2
KMUT 231355Z AUTO 28010G15KT 10SM OVC010 02/00 A3021 RMK AO2
KMUT 231335Z AUTO 28011G17KT 10SM OVC009 02/00 A3020 RMK AO2
KMUT 231315Z AUTO 28012KT 10SM OVC009 02/00 A3019 RMK AO2
KMUT 231255Z AUTO 29015KT 10SM BKN010 OVC015 02/00 A3017 RMK AO2
KMUT 231235Z AUTO 27009G16KT 10SM OVC013 02/01 A3016 RMK AO2
KMUT 231215Z AUTO 27011KT 10SM BKN010 OVC013 03/02 A3016 RMK AO2
KMUT 231155Z AUTO 26011KT 10SM OVC008 03/02 A3015 RMK AO2
KMUT 231135Z AUTO 25008KT 10SM OVC007 03/02 A3013 RMK AO2
KMUT 231115Z AUTO 24004KT 10SM OVC006 03/03 A3013 RMK AO2
KMUT 231055Z AUTO 00000KT 10SM BKN006 BKN018 OVC044 03/03 A3013 RMK AO2
KMUT 231035Z AUTO 21004KT 10SM SCT006 BKN027 OVC046 03/03 A3012 RMK AO2
KMUT 231015Z AUTO 21004KT 10SM SCT005 BKN027 OVC046 03/03 A3012 RMK AO2
KMUT 230955Z AUTO 19004KT 9SM BKN005 BKN025 OVC043 03/03 A3011 RMK AO2
KMUT 230935Z AUTO 22003KT 3SM BR BKN005 BKN018 OVC025 04/03 A3013 RMK AO2
KMUT 230915Z AUTO 23007KT 2SM BR OVC004 04/04 A3014 RMK AO2
KMUT 230855Z AUTO 25006KT 1 3/4SM BR OVC005 04/04 A3014 RMK AO2 P0003
KMUT 230835Z AUTO 26005KT -RA OVC004 04/03 A3014 RMK AO2
KMUT 230815Z AUTO 29005KT 3/4SM -RA OVC003 04/03 A3013 RMK AO2
KMUT 230755Z AUTO 18006KT 2SM -RA OVC003 04/04 A3013 RMK AO2 P0003
KMUT 230735Z AUTO 15006KT 3/4SM -UP OVC003 04/04 A3013 RMK AO2
KMUT 230715Z AUTO 15008KT 1SM BR OVC003 04/04 A3014 RMK AO2
KMUT 230655Z AUTO 14008KT 1/2SM -UP OVC002 04/04 A3014 RMK AO2 P0001
KMUT 230635Z AUTO 13007KT 1/4SM -UP OVC002 04/04 A3015 RMK AO2
KMUT 230615Z AUTO 13006KT 3/4SM BR OVC003 04/04 A3016 RMK AO2
KMUT 230555Z AUTO 13008KT 2SM BR OVC003 04/04 A3017 RMK AO2
KMUT 230535Z AUTO 11009KT 2SM BR OVC003 04/04 A3017 RMK AO2
KMUT 230515Z AUTO 11006KT 1 1/2SM -UP OVC003 04/04 A3020 RMK AO2
KMUT 230455Z AUTO 12006KT 1 1/2SM BR OVC003 04/04 A3021 RMK AO2
KMUT 230435Z AUTO 12005KT 1 1/2SM BR OVC003 04/03 A3022 RMK AO2
KMUT 230415Z AUTO 11005KT 1 1/2SM BR OVC003 03/03 A3023 RMK AO2
KMUT 230355Z AUTO 10009KT 1 3/4SM BR OVC003 03/03 A3023 RMK AO2
KMUT 230335Z AUTO 09005G10KT 1 3/4SM BR OVC003 03/03 A3025 RMK AO2
KMUT 230315Z AUTO 09007KT 2SM BR OVC003 03/03 A3025 RMK AO2
KMUT 230255Z AUTO 10006KT 1 3/4SM BR OVC003 03/03 A3026 RMK AO2
KMUT 230235Z AUTO 09006KT 2SM BR OVC003 03/03 A3026 RMK AO2
KMUT 230215Z AUTO 11005KT 2 1/2SM BR OVC004 03/03 A3028 RMK AO2
KMUT 230155Z AUTO 09008KT 2 1/2SM BR OVC004 03/03 A3027 RMK AO2
KMUT 230135Z AUTO 10008KT 2 1/2SM BR OVC004 03/03 A3029 RMK AO2
KMUT 230115Z AUTO 09008KT 3SM BR OVC004 03/02 A3030 RMK AO2
KMUT 230055Z AUTO 09006KT 3SM BR OVC004 03/02 A3031 RMK AO2
KMUT 230035Z AUTO 08006KT 1 3/4SM BR OVC004 03/02 A3031 RMK AO2
KMUT 230015Z AUTO 08006KT 1 1/2SM BR OVC004 03/02 A3030 RMK AO2
KMUT 222355Z AUTO 08005KT 1 1/2SM BR OVC004 03/02 A3031 RMK AO2
KMUT 222335Z AUTO 08007KT 1SM BR OVC004 03/02 A3032 RMK AO2
KMUT 222315Z AUTO 08007KT 1SM BR OVC008 03/02 A3032 RMK AO2
KMUT 222255Z AUTO 08005KT 1SM BR OVC008 03/02 A3035 RMK AO2
KMUT 222235Z AUTO 08006KT 1SM BR OVC009 03/02 A3037 RMK AO2
KMUT 222215Z AUTO 09004KT 1 3/4SM BR OVC009 03/02 A3038 RMK AO2
KMUT 222155Z AUTO 10007KT 1 3/4SM BR OVC008 03/02 A3038 RMK AO2
KMUT 222135Z AUTO 11007KT 5SM BR OVC012 03/01 A3039 RMK AO2
KMUT 222115Z AUTO 10005KT 3SM BR OVC012 03/01 A3039 RMK AO2
KMUT 222055Z AUTO 11008KT 6SM HZ OVC014 03/00 A3039 RMK AO2
KMUT 222035Z AUTO 10007KT 10SM OVC014 03/M00 A3038 RMK AO2
KMUT 222015Z AUTO 09006KT 10SM OVC014 03/M00 A3039 RMK AO2
KMUT 221955Z AUTO 08011KT 10SM OVC015 03/M00 A3036 RMK AO2
KMUT 221935Z AUTO 09007KT 10SM OVC015 02/M00 A3038 RMK AO2
KMUT 221915Z AUTO 07008G18KT 9SM OVC016 02/M01 A3037 RMK AO2
KMUT 221855Z AUTO 07011KT 7SM OVC016 02/M01 A3038 RMK AO2
KMUT 221835Z AUTO 06010KT 4SM HZ OVC018 02/M01 A3041 RMK AO2
KMUT 221815Z AUTO 05008KT 5SM HZ OVC018 02/M01 A3044 RMK AO2
KMUT 221755Z AUTO 07010KT 6SM HZ OVC018 02/M02 A3045 RMK AO2
KMUT 221735Z AUTO 08010G16KT 10SM BKN020 OVC025 02/M03 A3046 RMK AO2
KMUT 221715Z AUTO 07010KT 10SM SCT020 BKN025 OVC039 02/M03 A3047 RMK AO2
KMUT 221655Z AUTO 07013KT 10SM BKN043 OVC049 02/M03 A3047 RMK AO2
KMUT 221635Z AUTO 08014KT 10SM OVC048 01/M04 A3046 RMK AO2
KMUT 221615Z AUTO 07012KT 10SM OVC050 01/M04 A3049 RMK AO2
KMUT 221555Z AUTO 07010KT 10SM OVC050 01/M04 A3050 RMK AO2
KMUT 221535Z AUTO 07010KT 10SM OVC050 00/M05 A3051 RMK AO2
KMUT 221515Z AUTO 06010KT 10SM OVC050 M00/M05 A3051 RMK AO2
KMUT 221455Z AUTO 05008KT 10SM OVC050 M00/M05 A3052 RMK AO2
KMUT 221435Z AUTO 05008KT 10SM OVC055 M00/M06 A3052 RMK AO2
KMUT 221415Z AUTO 06010KT 10SM OVC055 M01/M06 A3051 RMK AO2
KMUT 221355Z AUTO 06010KT 10SM FEW029 SCT038 BKN044 M01/M06 A3051 RMK AO2
KMUT 221335Z AUTO 07010KT 10SM FEW032 SCT039 BKN050 M01/M06 A3051 RMK AO2
KMUT 221315Z AUTO 07008G14KT 10SM OVC065 M01/M06 A3051 RMK AO2
KMUT 221255Z AUTO 06008KT 10SM SCT019 BKN065 OVC075 M01/M06 A3051 RMK AO2
KMUT 221235Z AUTO 05010KT 10SM BKN021 OVC065 M02/M07 A3052 RMK AO2
KMUT 221215Z AUTO 05007KT 10SM OVC023 M02/M07 A3053 RMK AO2